createdAt,value
2022-10-19T00:01:19.129Z,92.27
2022-10-19T00:06:18.783Z,92.65
2022-10-19T00:08:46.530Z,92.29
2022-10-19T00:11:12.944Z,92.70
2022-10-19T00:13:40.149Z,92.58
2022-10-19T00:16:15.057Z,92.43
2022-10-19T00:18:45.918Z,92.35
2022-10-19T00:21:15.517Z,92.84
2022-10-19T00:23:42.590Z,92.71
2022-10-19T00:26:09.708Z,92.76
2022-10-19T00:28:36.850Z,92.33
2022-10-19T00:31:05.615Z,92.77
2022-10-19T00:33:32.337Z,92.92
2022-10-19T00:35:58.662Z,92.67
2022-10-19T00:38:25.215Z,92.36
2022-10-19T00:40:51.573Z,92.18
2022-10-19T00:43:23.487Z,92.28
2022-10-19T00:45:50.536Z,92.58
2022-10-19T00:48:29.721Z,91.83
2022-10-19T00:50:58.397Z,91.83
2022-10-19T00:53:27.330Z,91.74
2022-10-19T00:55:54.703Z,91.58
2022-10-19T00:58:21.486Z,91.79
2022-10-19T01:00:48.103Z,91.81
2022-10-19T01:03:14.847Z,92.14
2022-10-19T01:05:41.381Z,92.15
2022-10-19T01:08:09.504Z,92.27
2022-10-19T01:10:57.128Z,92.45
2022-10-19T01:13:47.376Z,92.23
2022-10-19T01:16:46.497Z,92.38
2022-10-19T01:19:46.909Z,92.18
2022-10-19T01:22:23.685Z,92.58
2022-10-19T01:25:08.757Z,92.84
2022-10-19T01:27:50.341Z,92.96
2022-10-19T01:30:28.643Z,92.82
2022-10-19T01:33:15.657Z,92.90
2022-10-19T01:36:22.779Z,92.75
2022-10-19T01:39:02.731Z,92.31
2022-10-19T01:41:39.541Z,92.14
2022-10-19T01:44:13.169Z,91.89
2022-10-19T01:46:43.976Z,91.48
2022-10-19T01:49:33.555Z,91.62
2022-10-19T01:52:04.095Z,91.55
2022-10-19T01:54:38.433Z,91.43
2022-10-19T01:57:07.494Z,91.25
2022-10-19T01:59:35.207Z,91.26
2022-10-19T02:02:04.125Z,91.21
2022-10-19T02:04:32.074Z,91.22
2022-10-19T02:06:59.175Z,91.39
2022-10-19T02:09:25.888Z,91.26
2022-10-19T02:11:57.328Z,91.66
2022-10-19T02:14:32.560Z,91.39
2022-10-19T02:17:25.323Z,91.62
2022-10-19T02:19:53.733Z,91.44
2022-10-19T02:22:21.467Z,91.25
2022-10-19T02:24:47.966Z,91.23
2022-10-19T02:27:14.411Z,91.56
2022-10-19T02:29:41.295Z,91.59
2022-10-19T02:32:08.760Z,91.63
2022-10-19T02:34:36.277Z,91.78
2022-10-19T02:37:02.885Z,91.92
2022-10-19T02:39:29.576Z,91.52
2022-10-19T02:42:05.659Z,91.94
2022-10-19T02:44:44.051Z,91.84
2022-10-19T02:47:15.724Z,91.76
2022-10-19T02:49:47.277Z,91.98
2022-10-19T02:52:14.996Z,91.61
2022-10-19T02:54:43.944Z,91.42
2022-10-19T02:57:28.606Z,91.71
2022-10-19T02:59:55.255Z,91.82
2022-10-19T03:02:21.660Z,91.69
2022-10-19T03:07:21.337Z,91.73
2022-10-19T03:09:48.290Z,91.92
2022-10-19T03:12:15.074Z,91.57
2022-10-19T03:14:41.706Z,91.63
2022-10-19T03:17:08.288Z,91.32
2022-10-19T03:19:35.822Z,91.46
2022-10-19T03:22:02.367Z,91.69
2022-10-19T03:24:30.108Z,91.63
2022-10-19T03:26:56.971Z,91.31
2022-10-19T03:29:23.580Z,91.43
2022-10-19T03:31:50.247Z,91.39
2022-10-19T03:34:16.689Z,91.21
2022-10-19T03:36:43.086Z,90.94
2022-10-19T03:39:14.611Z,90.94
2022-10-19T03:41:42.101Z,91.24
2022-10-19T03:44:10.545Z,90.92
2022-10-19T03:46:37.543Z,90.71
2022-10-19T03:49:05.168Z,90.79
2022-10-19T03:51:32.623Z,90.89
2022-10-19T03:54:01.646Z,90.84
2022-10-19T03:56:29.671Z,91.27
2022-10-19T03:58:57.202Z,91.10
2022-10-19T04:01:32.960Z,91.21
2022-10-19T04:04:01.947Z,90.96
2022-10-19T04:06:31.032Z,91.02
2022-10-19T04:08:59.013Z,90.87
2022-10-19T04:11:28.498Z,91.07
2022-10-19T04:13:57.174Z,90.75
2022-10-19T04:16:25.533Z,91.01
2022-10-19T04:18:52.444Z,90.95
2022-10-19T04:21:36.729Z,90.92
2022-10-19T04:24:04.831Z,90.97
2022-10-19T04:26:31.565Z,90.64
2022-10-19T04:28:59.034Z,90.63
2022-10-19T04:31:26.304Z,90.65
2022-10-19T04:33:52.693Z,90.32
2022-10-19T04:36:19.494Z,90.38
2022-10-19T04:38:48.815Z,90.49
2022-10-19T04:41:17.928Z,90.50
2022-10-19T04:43:47.777Z,90.77
2022-10-19T04:46:18.033Z,90.91
2022-10-19T04:48:45.769Z,90.85
2022-10-19T04:51:12.700Z,90.82
2022-10-19T04:53:40.463Z,90.71
2022-10-19T04:56:09.287Z,90.96
2022-10-19T04:58:35.958Z,91.00
2022-10-19T05:01:11.392Z,90.97
2022-10-19T05:03:38.284Z,91.21
2022-10-19T05:06:05.334Z,91.13
2022-10-19T05:08:32.705Z,91.00
2022-10-19T05:11:11.738Z,91.12
2022-10-19T05:13:38.370Z,91.11
2022-10-19T05:16:07.651Z,90.92
2022-10-19T05:18:34.931Z,90.71
2022-10-19T05:21:05.791Z,90.78
2022-10-19T05:26:05.309Z,90.86
2022-10-19T05:28:33.036Z,90.64
2022-10-19T05:31:27.359Z,90.76
2022-10-19T05:33:53.954Z,90.88
2022-10-19T05:36:35.415Z,90.86
2022-10-19T05:39:19.841Z,91.01
2022-10-19T05:41:47.562Z,91.14
2022-10-19T05:44:20.054Z,91.11
2022-10-19T05:46:47.269Z,90.90
2022-10-19T05:49:15.053Z,91.08
2022-10-19T05:51:41.856Z,90.92
2022-10-19T05:54:08.346Z,91.03
2022-10-19T05:56:34.676Z,91.01
2022-10-19T05:59:05.165Z,90.91
2022-10-19T06:01:32.078Z,90.77
2022-10-19T06:03:59.934Z,90.78
2022-10-19T06:06:27.852Z,90.68
2022-10-19T06:08:55.944Z,91.00
2022-10-19T06:11:29.701Z,90.88
2022-10-19T06:13:58.021Z,91.12
2022-10-19T06:16:25.996Z,90.93
2022-10-19T06:18:53.840Z,90.71
2022-10-19T06:21:22.525Z,90.86
2022-10-19T06:23:57.998Z,90.66
2022-10-19T06:26:25.728Z,90.66
2022-10-19T06:28:56.166Z,90.65
2022-10-19T06:31:22.518Z,90.66
2022-10-19T06:33:49.805Z,90.43
2022-10-19T06:36:27.044Z,90.85
2022-10-19T06:38:53.570Z,90.78
2022-10-19T06:41:20.721Z,90.97
2022-10-19T06:43:52.005Z,91.10
2022-10-19T06:46:20.547Z,91.13
2022-10-19T06:49:00.545Z,91.08
2022-10-19T06:51:29.330Z,90.75
2022-10-19T06:53:57.122Z,91.10
2022-10-19T06:56:25.382Z,91.10
2022-10-19T06:58:52.552Z,91.02
2022-10-19T07:01:19.005Z,91.31
2022-10-19T07:03:45.529Z,91.05
2022-10-19T07:06:13.254Z,91.08
2022-10-19T07:08:41.699Z,91.22
2022-10-19T07:11:11.020Z,91.33
2022-10-19T07:13:37.979Z,91.54
2022-10-19T07:16:14.518Z,91.95
2022-10-19T07:18:44.582Z,91.79
2022-10-19T07:21:14.220Z,92.22
2022-10-19T07:23:42.079Z,92.14
2022-10-19T07:26:15.660Z,92.44
2022-10-19T07:28:44.202Z,92.21
2022-10-19T07:31:13.489Z,92.77
2022-10-19T07:33:40.059Z,92.77
2022-10-19T07:36:09.605Z,93.24
2022-10-19T07:38:36.876Z,93.00
2022-10-19T07:41:04.991Z,93.29
2022-10-19T07:43:31.461Z,93.58
2022-10-19T07:45:59.767Z,93.79
2022-10-19T07:48:26.468Z,93.56
2022-10-19T07:50:53.005Z,94.17
2022-10-19T07:53:19.383Z,94.20
2022-10-19T07:55:45.830Z,94.29
2022-10-19T07:58:12.265Z,94.38
2022-10-19T08:03:43.768Z,94.86
2022-10-19T08:05:51.196Z,94.87
2022-10-19T08:08:17.561Z,95.12
2022-10-19T08:10:43.923Z,95.05
2022-10-19T08:13:10.283Z,95.11
2022-10-19T08:15:40.077Z,95.36
2022-10-19T08:18:06.502Z,95.23
2022-10-19T08:20:33.067Z,95.09
2022-10-19T08:22:59.407Z,94.89
2022-10-19T08:25:25.838Z,95.15
2022-10-19T08:27:52.569Z,95.32
2022-10-19T08:30:19.267Z,94.90
2022-10-19T08:32:45.782Z,94.85
2022-10-19T08:35:12.115Z,94.86
2022-10-19T08:37:45.302Z,95.07
2022-10-19T08:40:25.369Z,94.79
2022-10-19T08:43:10.093Z,94.47
2022-10-19T08:45:43.019Z,94.36
2022-10-19T08:48:25.241Z,93.84
2022-10-19T08:50:52.606Z,93.49
2022-10-19T08:53:33.505Z,93.23
2022-10-19T08:56:06.107Z,92.91
2022-10-19T08:59:01.654Z,91.98
2022-10-19T09:01:40.623Z,91.53
2022-10-19T09:04:14.852Z,91.54
2022-10-19T09:07:19.726Z,90.44
2022-10-19T09:09:51.450Z,90.13
2022-10-19T09:12:22.254Z,90.08
2022-10-19T09:14:59.098Z,89.54
2022-10-19T09:17:34.009Z,88.99
2022-10-19T09:20:15.848Z,88.75
2022-10-19T09:22:43.817Z,88.27
2022-10-19T09:25:23.125Z,87.79
2022-10-19T09:27:58.120Z,87.61
2022-10-19T09:30:24.601Z,87.24
2022-10-19T09:32:59.829Z,86.52
2022-10-19T09:35:37.238Z,86.31
2022-10-19T09:38:06.681Z,85.80
2022-10-19T09:40:34.990Z,85.84
2022-10-19T09:43:19.715Z,84.90
2022-10-19T09:45:54.814Z,84.73
2022-10-19T09:48:38.014Z,84.29
2022-10-19T09:51:10.980Z,83.69
2022-10-19T09:53:37.817Z,82.76
2022-10-19T09:56:07.560Z,81.00
2022-10-19T09:58:35.055Z,80.90
2022-10-19T10:01:02.910Z,80.55
2022-10-19T10:03:43.497Z,80.00
2022-10-19T10:06:15.201Z,79.75
2022-10-19T10:08:57.802Z,79.28
2022-10-19T10:11:28.553Z,78.30
2022-10-19T10:13:56.233Z,78.39
2022-10-19T10:16:24.989Z,78.15
2022-10-19T10:18:56.041Z,78.13
2022-10-19T10:21:26.294Z,76.52
2022-10-19T10:24:02.950Z,75.77
2022-10-19T10:26:29.620Z,75.55
2022-10-19T10:28:59.201Z,75.16
2022-10-19T10:31:29.988Z,75.32
2022-10-19T10:34:10.779Z,74.80
2022-10-19T10:36:53.755Z,74.85
2022-10-19T10:39:20.438Z,75.32
2022-10-19T10:41:49.035Z,74.78
2022-10-19T10:44:24.780Z,74.09
2022-10-19T10:46:58.282Z,73.85
2022-10-19T10:49:28.121Z,73.67
2022-10-19T10:51:57.636Z,73.25
2022-10-19T10:54:27.625Z,72.64
2022-10-19T10:57:16.728Z,72.42
2022-10-19T10:59:55.517Z,73.43
2022-10-19T11:02:33.638Z,73.33
2022-10-19T11:05:29.203Z,72.66
2022-10-19T11:08:04.764Z,71.63
2022-10-19T11:10:36.678Z,71.33
2022-10-19T11:13:33.212Z,71.11
2022-10-19T11:16:06.435Z,71.33
2022-10-19T11:18:37.837Z,71.06
2022-10-19T11:21:15.708Z,70.40
2022-10-19T11:24:03.026Z,70.13
2022-10-19T11:27:07.107Z,69.42
2022-10-19T11:30:04.258Z,69.20
2022-10-19T11:32:45.952Z,68.13
2022-10-19T11:35:12.417Z,67.73
2022-10-19T11:38:20.155Z,67.44
2022-10-19T11:41:06.135Z,67.12
2022-10-19T11:44:09.178Z,67.50
2022-10-19T11:46:52.462Z,66.48
2022-10-19T11:49:37.544Z,65.81
2022-10-19T11:52:22.731Z,65.53
2022-10-19T11:55:04.301Z,65.64
2022-10-19T11:57:48.284Z,64.69
2022-10-19T12:00:37.715Z,63.92
2022-10-19T12:03:24.859Z,64.27
2022-10-19T12:06:31.312Z,64.35
2022-10-19T12:09:13.824Z,64.11
2022-10-19T12:11:58.751Z,63.53
2022-10-19T12:14:30.163Z,63.53
2022-10-19T12:17:02.474Z,62.83
2022-10-19T12:19:40.980Z,62.49
2022-10-19T12:22:25.081Z,62.85
2022-10-19T12:24:55.376Z,61.67
2022-10-19T12:27:32.702Z,61.95
2022-10-19T12:30:22.718Z,62.63
2022-10-19T12:33:15.677Z,62.62
2022-10-19T12:36:06.489Z,61.17
2022-10-19T12:39:00.013Z,60.74
2022-10-19T12:41:53.080Z,61.07
2022-10-19T12:44:33.280Z,60.84
2022-10-19T12:47:09.436Z,60.97
2022-10-19T12:49:43.010Z,60.47
2022-10-19T12:52:09.993Z,60.14
2022-10-19T12:54:39.598Z,60.53
2022-10-19T12:57:23.869Z,60.68
2022-10-19T13:00:03.621Z,60.97
2022-10-19T13:05:06.124Z,60.53
2022-10-19T13:07:35.492Z,59.81
2022-10-19T13:10:05.963Z,60.72
2022-10-19T13:12:44.255Z,60.11
2022-10-19T13:15:35.249Z,60.11
2022-10-19T13:18:05.035Z,60.42
2022-10-19T13:20:31.645Z,59.09
2022-10-19T13:23:00.762Z,59.91
2022-10-19T13:25:31.770Z,58.56
2022-10-19T13:28:07.660Z,59.63
2022-10-19T13:30:39.746Z,59.73
2022-10-19T13:33:27.353Z,59.19
2022-10-19T13:36:00.049Z,59.90
2022-10-19T13:38:28.742Z,59.05
2022-10-19T13:40:55.102Z,58.83
2022-10-19T13:43:24.964Z,57.37
2022-10-19T13:46:05.329Z,56.86
2022-10-19T13:48:34.686Z,56.99
2022-10-19T13:51:27.453Z,55.95
2022-10-19T13:54:08.966Z,54.79
2022-10-19T13:56:50.751Z,55.37
2022-10-19T13:59:31.421Z,56.65
2022-10-19T14:02:43.743Z,57.35
2022-10-19T14:05:21.921Z,57.58
2022-10-19T14:08:00.876Z,58.12
2022-10-19T14:10:32.813Z,58.21
2022-10-19T14:13:01.671Z,58.83
2022-10-19T14:15:31.607Z,59.60
2022-10-19T14:18:02.389Z,60.18
2022-10-19T14:20:34.940Z,60.22
2022-10-19T14:23:24.376Z,61.00
2022-10-19T14:26:19.456Z,61.04
2022-10-19T14:28:52.514Z,61.37
2022-10-19T14:31:23.993Z,61.84
2022-10-19T14:33:52.705Z,62.25
2022-10-19T14:36:27.659Z,62.43
2022-10-19T14:38:55.932Z,62.61
2022-10-19T14:41:28.024Z,62.41
2022-10-19T14:43:56.618Z,62.73
2022-10-19T14:46:32.004Z,63.42
2022-10-19T14:49:05.887Z,63.21
2022-10-19T14:51:42.225Z,63.29
2022-10-19T14:54:28.901Z,62.95
2022-10-19T14:56:57.639Z,63.14
2022-10-19T14:59:36.088Z,63.58
2022-10-19T15:02:13.760Z,64.20
2022-10-19T15:04:40.138Z,64.12
2022-10-19T15:07:18.511Z,64.60
2022-10-19T15:09:51.495Z,64.77
2022-10-19T15:12:21.270Z,64.77
2022-10-19T15:14:48.556Z,65.08
2022-10-19T15:17:22.494Z,65.28
2022-10-19T15:19:48.909Z,65.37
2022-10-19T15:22:19.176Z,65.67
2022-10-19T15:24:55.520Z,65.86
2022-10-19T15:27:28.838Z,66.07
2022-10-19T15:30:17.992Z,66.42
2022-10-19T15:32:53.864Z,66.28
2022-10-19T15:35:26.201Z,66.77
2022-10-19T15:38:02.028Z,66.63
2022-10-19T15:40:37.791Z,66.68
2022-10-19T15:43:34.791Z,66.93
2022-10-19T15:46:13.524Z,67.21
2022-10-19T15:48:50.066Z,67.67
2022-10-19T15:51:24.581Z,67.90
2022-10-19T15:53:52.476Z,68.16
2022-10-19T15:56:19.260Z,68.31
2022-10-19T15:58:49.710Z,68.53
2022-10-19T16:01:19.154Z,68.62
2022-10-19T16:03:45.973Z,68.77
2022-10-19T16:06:12.817Z,69.19
2022-10-19T16:08:39.193Z,69.48
2022-10-19T16:11:05.570Z,69.71
2022-10-19T16:13:31.961Z,70.04
2022-10-19T16:16:11.276Z,70.42
2022-10-19T16:18:38.421Z,70.36
2022-10-19T16:21:05.488Z,70.86
2022-10-19T16:23:36.629Z,71.06
2022-10-19T16:26:06.900Z,71.34
2022-10-19T16:28:33.637Z,71.51
2022-10-19T16:31:00.038Z,71.77
2022-10-19T16:33:26.406Z,72.23
2022-10-19T16:35:52.719Z,72.19
2022-10-19T16:38:19.066Z,72.22
2022-10-19T16:40:45.425Z,72.47
2022-10-19T16:43:11.740Z,72.84
2022-10-19T16:45:42.416Z,73.06
2022-10-19T16:48:12.965Z,73.30
2022-10-19T16:50:39.345Z,73.41
2022-10-19T16:53:12.130Z,73.67
2022-10-19T16:55:39.878Z,73.79
2022-10-19T16:58:06.857Z,73.83
2022-10-19T17:00:35.198Z,74.32
2022-10-19T17:03:01.519Z,74.41
2022-10-19T17:05:27.921Z,74.46
2022-10-19T17:07:54.325Z,74.50
2022-10-19T17:10:20.697Z,74.60
2022-10-19T17:12:47.091Z,74.92
2022-10-19T17:18:00.293Z,75.15
2022-10-19T17:20:26.702Z,75.32
2022-10-19T17:22:53.046Z,75.44
2022-10-19T17:25:19.392Z,75.58
2022-10-19T17:27:50.826Z,76.02
2022-10-19T17:30:17.521Z,76.19
2022-10-19T17:32:44.274Z,76.12
2022-10-19T17:35:10.750Z,76.05
2022-10-19T17:37:37.913Z,76.40
2022-10-19T17:40:04.884Z,76.37
2022-10-19T17:42:32.121Z,76.53
2022-10-19T17:44:58.441Z,76.47
2022-10-19T17:47:24.833Z,76.62
2022-10-19T17:49:51.185Z,76.64
2022-10-19T17:52:17.534Z,76.92
2022-10-19T17:54:54.615Z,76.96
2022-10-19T17:57:26.991Z,77.09
2022-10-19T17:59:54.721Z,77.00
2022-10-19T18:02:21.157Z,77.12
2022-10-19T18:04:47.511Z,77.16
2022-10-19T18:07:13.904Z,77.29
2022-10-19T18:09:40.402Z,77.39
2022-10-19T18:12:08.577Z,77.48
2022-10-19T18:14:34.958Z,77.37
2022-10-19T18:17:01.281Z,77.42
2022-10-19T18:19:27.727Z,77.47
2022-10-19T18:21:54.135Z,77.47
2022-10-19T18:24:21.390Z,77.27
2022-10-19T18:26:49.281Z,77.88
2022-10-19T18:29:19.049Z,77.79
2022-10-19T18:31:51.175Z,77.95
2022-10-19T18:34:22.343Z,78.05
2022-10-19T18:36:49.977Z,77.93
2022-10-19T18:39:17.348Z,77.96
2022-10-19T18:41:43.717Z,78.23
2022-10-19T18:44:12.801Z,78.28
2022-10-19T18:46:40.552Z,78.35
2022-10-19T18:49:08.210Z,78.40
2022-10-19T18:51:35.530Z,78.28
2022-10-19T18:54:02.043Z,78.34
2022-10-19T18:56:29.374Z,78.65
2022-10-19T18:58:56.670Z,78.61
2022-10-19T19:01:28.156Z,78.78
2022-10-19T19:03:57.093Z,78.85
2022-10-19T19:06:26.266Z,78.95
2022-10-19T19:08:56.859Z,79.29
2022-10-19T19:11:25.942Z,79.22
2022-10-19T19:13:55.169Z,79.31
2022-10-19T19:16:22.267Z,79.56
2022-10-19T19:18:48.655Z,79.64
2022-10-19T19:21:20.239Z,79.73
2022-10-19T19:23:48.058Z,79.92
2022-10-19T19:26:15.229Z,79.92
2022-10-19T19:28:46.381Z,79.87
2022-10-19T19:31:17.132Z,79.99
2022-10-19T19:33:44.829Z,80.18
2022-10-19T19:36:13.599Z,80.50
2022-10-19T19:38:40.465Z,80.60
2022-10-19T19:41:08.746Z,80.63
2022-10-19T19:43:37.565Z,80.60
2022-10-19T19:46:09.377Z,80.72
2022-10-19T19:48:36.704Z,81.02
2022-10-19T19:51:03.475Z,81.05
2022-10-19T19:53:29.824Z,81.22
2022-10-19T19:55:56.313Z,81.25
2022-10-19T19:58:22.693Z,81.30
2022-10-19T20:00:49.052Z,81.52
2022-10-19T20:03:15.809Z,81.67
2022-10-19T20:05:42.434Z,81.85
2022-10-19T20:08:09.045Z,81.64
2022-10-19T20:10:40.540Z,81.84
2022-10-19T20:13:07.198Z,81.88
2022-10-19T20:15:33.649Z,82.13
2022-10-19T20:18:00.030Z,82.17
2022-10-19T20:20:26.433Z,82.04
2022-10-19T20:22:52.801Z,82.00
2022-10-19T20:25:19.238Z,82.48
2022-10-19T20:27:45.634Z,82.47
2022-10-19T20:30:11.988Z,82.50
2022-10-19T20:32:38.619Z,82.58
2022-10-19T20:35:06.008Z,82.63
2022-10-19T20:37:32.367Z,82.93
2022-10-19T20:39:59.412Z,83.06
2022-10-19T20:42:26.005Z,83.06
2022-10-19T20:44:54.599Z,83.09
2022-10-19T20:47:21.026Z,83.10
2022-10-19T20:49:47.745Z,83.54
2022-10-19T20:52:14.134Z,83.44
2022-10-19T20:54:40.468Z,83.40
2022-10-19T20:57:06.877Z,83.46
2022-10-19T20:59:33.342Z,83.52
2022-10-19T21:01:59.709Z,83.78
2022-10-19T21:04:26.724Z,83.80
2022-10-19T21:06:53.310Z,84.15
2022-10-19T21:09:22.515Z,84.24
2022-10-19T21:11:50.885Z,83.96
2022-10-19T21:14:23.686Z,84.14
2022-10-19T21:16:53.424Z,84.31
2022-10-19T21:19:22.366Z,84.37
2022-10-19T21:21:51.749Z,84.28
2022-10-19T21:24:24.414Z,84.78
2022-10-19T21:29:19.214Z,84.58
2022-10-19T21:31:49.083Z,84.48
2022-10-19T21:34:22.313Z,84.40
2022-10-19T21:36:49.044Z,84.27
2022-10-19T21:39:15.861Z,84.76
2022-10-19T21:41:42.195Z,84.54
2022-10-19T21:44:09.341Z,84.85
2022-10-19T21:46:35.697Z,85.07
2022-10-19T21:49:02.645Z,84.93
2022-10-19T21:51:48.463Z,84.98
2022-10-19T21:54:20.327Z,85.13
2022-10-19T21:56:47.492Z,85.21
2022-10-19T21:59:14.806Z,85.46
2022-10-19T22:01:41.877Z,85.28
2022-10-19T22:04:13.685Z,85.24
2022-10-19T22:06:40.553Z,85.67
2022-10-19T22:09:09.282Z,85.67
2022-10-19T22:11:36.189Z,85.75
2022-10-19T22:14:03.980Z,86.01
2022-10-19T22:16:31.745Z,86.07
2022-10-19T22:18:58.697Z,86.40
2022-10-19T22:21:28.129Z,86.06
2022-10-19T22:24:14.511Z,86.56
2022-10-19T22:26:44.423Z,86.21
2022-10-19T22:29:11.366Z,86.59
2022-10-19T22:31:38.594Z,86.52
2022-10-19T22:34:07.869Z,86.72
2022-10-19T22:36:34.707Z,86.50
2022-10-19T22:39:01.338Z,86.71
2022-10-19T22:42:04.515Z,86.83
2022-10-19T22:44:31.810Z,86.55
2022-10-19T22:46:58.791Z,87.05
2022-10-19T22:49:25.485Z,86.86
2022-10-19T22:51:51.874Z,86.68
2022-10-19T22:54:18.202Z,87.23
2022-10-19T22:56:44.818Z,86.78
2022-10-19T22:59:17.842Z,86.85
2022-10-19T23:01:44.273Z,87.10
2022-10-19T23:04:10.669Z,87.40
2022-10-19T23:06:37.089Z,87.55
2022-10-19T23:09:03.918Z,87.68
2022-10-19T23:11:30.352Z,87.61
2022-10-19T23:13:56.715Z,87.45
2022-10-19T23:16:23.122Z,87.88
2022-10-19T23:18:49.789Z,87.85
2022-10-19T23:21:16.242Z,87.83
2022-10-19T23:23:42.687Z,87.80
2022-10-19T23:26:19.987Z,87.99
2022-10-19T23:28:47.924Z,87.73
2022-10-19T23:31:20.352Z,88.02
2022-10-19T23:33:47.031Z,87.96
2022-10-19T23:36:17.054Z,88.27
2022-10-19T23:38:45.042Z,88.21
2022-10-19T23:41:12.536Z,88.30
2022-10-19T23:43:39.766Z,88.46
2022-10-19T23:46:06.540Z,88.34
2022-10-19T23:48:34.359Z,88.73
2022-10-19T23:51:06.803Z,88.38
2022-10-19T23:53:39.883Z,88.34
2022-10-19T23:56:27.979Z,88.41
2022-10-19T23:58:55.586Z,88.55
